Leon, Kansas
Current Conditions -  °F | °C
As of 10:35 AM on Tuesday 21 Oct 2014 (Local Time) from KEQA Reporting Station
Broken Clouds Broken Clouds  
Wind Chill: 72°   Ceiling: 4400
Heat Index: 72°   Visibility: 10mi
Dew Point: 57°   Wind: 10mph
Humidity: 60%   Direction: 150°SSE
Pressure: 30.12"   Gusts: NA
Location:  37.69°N, 96.78°W
Report Text: KEQA 211535Z AUTO 15009KT 10SM BKN044 22/14 A3012 RMK AO2
Loading
Personal Weather Stations






























Interactive Weather Map
Tropical Storm Tracking
New forecast layout! Learn more

10-Day Weather Forecast

Advertisements
Track Severe Weather on mobile